createdAt,value
2023-01-13T00:02:08.564Z,70.6117878498164
2023-01-13T00:07:04.784Z,72.04040394014162
2023-01-13T00:12:01.060Z,73.45602781738029
2023-01-13T00:16:57.304Z,76.43333738863657
2023-01-13T00:21:54.560Z,74.76856963573013
2023-01-13T00:26:51.984Z,74.82131678905924
2023-01-13T00:31:49.103Z,74.70851610878827
2023-01-13T00:36:46.365Z,74.53668544000644
2023-01-13T00:41:43.605Z,75.11157869668482
2023-01-13T00:46:40.913Z,75.94230472488017
2023-01-13T00:51:38.094Z,76.05849264229037
2023-01-13T00:56:40.081Z,76.4619189490201
2023-01-13T01:01:36.773Z,76.21926060046182
2023-01-13T01:06:36.870Z,73.61641642899941
2023-01-13T01:11:34.151Z,74.47464632924434
2023-01-13T01:16:30.473Z,74.03087999892621
2023-01-13T01:21:30.612Z,72.27842879834547
2023-01-13T01:26:27.892Z,72.53684524218983
2023-01-13T01:31:25.163Z,72.53937208395408
2023-01-13T01:36:22.406Z,74.887764229359
2023-01-13T01:41:19.649Z,72.93353862577678
2023-01-13T01:46:15.975Z,75.18480802822128
2023-01-13T01:51:12.243Z,73.80730204936215
2023-01-13T01:56:10.437Z,75.24304049234804
2023-01-13T02:01:06.888Z,73.24547439373399
2023-01-13T02:06:02.972Z,73.98704814327752
2023-01-13T02:11:00.216Z,74.27982191037354
2023-01-13T02:16:06.471Z,75.13848033479844
2023-01-13T02:21:17.684Z,76.37360455883059
2023-01-13T02:26:29.902Z,75.65710228375403
2023-01-13T02:31:32.193Z,75.8388222382007
2023-01-13T02:36:37.394Z,75.30724364950036
2023-01-13T02:41:38.609Z,75.45072218794836
2023-01-13T02:46:43.861Z,78.52559747285505
2023-01-13T02:51:43.129Z,77.14347619473554
2023-01-13T02:56:41.365Z,80.44524975279182
2023-01-13T03:01:36.716Z,80.64799708036526
2023-01-13T03:06:43.900Z,81.35201717288183
2023-01-13T03:11:46.152Z,77.8583561062087
2023-01-13T03:16:53.398Z,80.15949463132826
2023-01-13T03:21:54.599Z,78.2034832536166
2023-01-13T03:27:00.860Z,78.07564206845475
2023-01-13T03:32:03.103Z,77.70218280372495
2023-01-13T03:37:02.321Z,79.18162905217808
2023-01-13T03:42:01.565Z,80.90885886072371
2023-01-13T03:47:04.810Z,79.43771220469706
2023-01-13T03:52:05.095Z,79.4446374926716
2023-01-13T03:57:06.337Z,75.57889347695493
2023-01-13T04:02:07.736Z,75.25193879114168
2023-01-13T04:07:12.823Z,76.4969717814442
2023-01-13T04:12:14.061Z,74.92845959691736
2023-01-13T04:17:10.303Z,74.07169201589751
2023-01-13T04:22:06.589Z,76.68030294934793
2023-01-13T04:27:02.858Z,77.17584661338229
2023-01-13T04:31:59.100Z,78.65434154790545
2023-01-13T04:36:55.362Z,76.98596438277066
2023-01-13T04:41:50.638Z,76.6939625315951
2023-01-13T04:46:46.892Z,76.9569224538724
2023-01-13T04:51:42.132Z,80.23128491414283
2023-01-13T04:56:37.402Z,81.22993960287664
2023-01-13T05:01:33.876Z,79.20094838665312
2023-01-13T05:06:29.937Z,78.84992982112449
2023-01-13T05:11:26.175Z,79.24951647537925
2023-01-13T05:16:22.511Z,79.36701607837472
2023-01-13T05:21:18.704Z,76.45176595397598
2023-01-13T05:26:13.957Z,78.97644748328679
2023-01-13T05:31:10.217Z,76.58355721854429
2023-01-13T05:36:06.468Z,77.4410141468399
2023-01-13T05:41:01.728Z,78.93445759937318
2023-01-13T05:45:59.007Z,76.29086471558918
2023-01-13T05:50:54.273Z,75.75343738837823
2023-01-13T05:55:49.590Z,76.55161929811419
2023-01-13T06:00:45.781Z,75.7968841437985
2023-01-13T06:05:42.064Z,73.65938822311264
2023-01-13T06:10:39.284Z,72.03987966613865
2023-01-13T06:15:35.578Z,74.63018771262516
2023-01-13T06:20:32.862Z,77.86283083909622
2023-01-13T06:25:34.065Z,76.17789078683539
2023-01-13T06:30:32.373Z,76.35692432647981
2023-01-13T06:40:37.789Z,74.4214532117756
2023-01-13T06:45:33.083Z,72.50075828091694
2023-01-13T06:50:29.357Z,73.64447570734623
2023-01-13T06:55:25.571Z,73.70210133175267
2023-01-13T07:00:22.870Z,74.38556807661752
2023-01-13T07:05:19.093Z,77.43284745521011
2023-01-13T07:10:15.361Z,72.90942366884678
2023-01-13T07:15:11.622Z,74.38987458074575
2023-01-13T07:20:07.894Z,77.58452075629897
2023-01-13T07:25:04.170Z,77.15153251219758
2023-01-13T07:30:00.412Z,77.8941896521273
2023-01-13T07:34:55.687Z,77.15338822937723
2023-01-13T07:39:51.942Z,76.96824083629188
2023-01-13T07:44:48.212Z,76.08783075659264
2023-01-13T07:49:43.467Z,76.24952527552023
2023-01-13T07:54:41.080Z,76.23641073981739
2023-01-13T07:59:37.060Z,82.7246045280841
2023-01-13T08:04:33.223Z,74.8606816531571
2023-01-13T08:09:28.499Z,75.79180172172693
2023-01-13T08:14:26.739Z,76.18268303590264
2023-01-13T08:19:23.013Z,75.34498725431447
2023-01-13T08:24:20.241Z,77.19786812097757
2023-01-13T08:29:16.512Z,76.60765304966115
2023-01-13T08:34:12.751Z,76.0054210827285
2023-01-13T08:39:09.221Z,76.87832383650553
2023-01-13T08:44:05.265Z,77.34604190795578
2023-01-13T08:49:01.565Z,76.00597246386265
2023-01-13T08:53:56.843Z,76.96923066590078
2023-01-13T08:58:53.075Z,74.00095700776606
2023-01-13T09:03:49.875Z,74.08460883563369
2023-01-13T09:08:45.621Z,73.21575001987678
2023-01-13T09:13:43.892Z,72.44414254464557
2023-01-13T09:18:40.085Z,71.95586255061018
2023-01-13T09:23:36.349Z,72.42263871564516
2023-01-13T09:28:32.607Z,71.80575724923699
2023-01-13T09:33:28.900Z,75.0427753215152
2023-01-13T09:38:25.176Z,75.60027314408683
2023-01-13T09:43:28.870Z,72.8376847096801
2023-01-13T09:48:29.828Z,71.29162046998023
2023-01-13T09:53:28.908Z,71.07356108657996
2023-01-13T09:58:25.168Z,70.7342987031098
2023-01-13T10:08:37.640Z,72.786363860528
2023-01-13T10:13:38.917Z,73.68746725648654
2023-01-13T10:18:44.080Z,71.31304372101862
2023-01-13T10:22:46.607Z,71.86803261362968
2023-01-13T10:27:48.738Z,72.72294658640531
2023-01-13T10:32:47.008Z,70.12730419334139
2023-01-13T10:37:53.274Z,69.17832484905598
2023-01-13T10:42:55.514Z,70.8778297086426
2023-01-13T10:47:58.737Z,70.20727182941918
2023-01-13T10:52:58.964Z,69.43852040142662
2023-01-13T10:57:56.249Z,66.98792876394516
2023-01-13T11:03:09.438Z,64.74551155916753
2023-01-13T11:08:12.790Z,64.79130006445659
2023-01-13T11:13:15.963Z,66.03391891205972
2023-01-13T11:18:18.164Z,68.22517215773787
2023-01-13T11:23:18.542Z,68.6032843476825
2023-01-13T11:28:20.706Z,66.43638733674084
2023-01-13T11:33:28.915Z,67.8357216720811
2023-01-13T11:38:31.157Z,66.91320931147727
2023-01-13T11:43:33.389Z,69.50051049028335
2023-01-13T11:48:32.680Z,68.3300807513042
2023-01-13T11:53:43.915Z,67.9284699382773
2023-01-13T11:59:00.067Z,65.50698628741152
2023-01-13T12:04:05.308Z,67.065158581709
2023-01-13T12:09:15.515Z,61.56014881997704
2023-01-13T12:14:19.807Z,59.6559677862691
2023-01-13T12:19:26.981Z,58.95439635048786
2023-01-13T12:24:33.259Z,62.96675276281332
2023-01-13T12:29:34.581Z,65.25514245595407
2023-01-13T12:34:41.767Z,64.47058969447218
2023-01-13T12:39:47.982Z,65.30727555592497
2023-01-13T12:44:54.349Z,67.77056870954749
2023-01-13T12:49:53.424Z,68.77406543884771
2023-01-13T12:55:00.704Z,69.57613694770987
2023-01-13T13:00:14.897Z,68.71154284190055
2023-01-13T13:05:25.163Z,69.66416467175215
2023-01-13T13:10:28.347Z,69.32278893685125
2023-01-13T13:15:32.602Z,70.90121419156826
2023-01-13T13:20:38.850Z,68.84782418474961
2023-01-13T13:25:49.100Z,70.31446809210446
2023-01-13T13:30:54.342Z,69.9062136950819
2023-01-13T13:36:04.504Z,69.5518232330578
2023-01-13T13:41:09.776Z,68.90085326333177
2023-01-13T13:46:11.068Z,70.09689133083681
2023-01-13T13:51:13.259Z,71.372649001547
2023-01-13T13:56:16.180Z,71.86994650524137
2023-01-13T14:01:20.918Z,72.71143332951952
2023-01-13T14:06:21.957Z,71.80901874723335
2023-01-13T14:11:23.219Z,74.06324211242321
2023-01-13T14:16:20.455Z,73.57036892592019
2023-01-13T14:21:23.685Z,74.30856346413566
2023-01-13T14:26:23.922Z,74.67372064888497
2023-01-13T14:31:20.209Z,75.48263942654778
2023-01-13T14:36:30.454Z,75.97549996391317
2023-01-13T14:41:27.627Z,74.82354137403844
2023-01-13T14:46:31.938Z,75.87488223920452
2023-01-13T14:51:30.116Z,76.21733385216642
2023-01-13T14:56:37.369Z,77.2259452955348
2023-01-13T15:01:42.759Z,77.58637248514765
2023-01-13T15:06:45.854Z,77.35116500442791
2023-01-13T15:11:47.071Z,77.94306361357836
2023-01-13T15:16:46.355Z,77.65093393022006
2023-01-13T15:21:42.598Z,78.63703839557407
2023-01-13T15:33:01.949Z,77.94966278533492
2023-01-13T15:37:58.215Z,79.32105580324101
2023-01-13T15:42:54.432Z,78.54213259834337
2023-01-13T15:47:51.686Z,78.17046559005244
2023-01-13T15:52:54.899Z,79.32943553241867
2023-01-13T15:57:56.350Z,78.52508969109189
2023-01-13T16:02:52.520Z,76.19011612787628
2023-01-13T16:07:50.690Z,79.27703841261952
2023-01-13T16:12:55.939Z,77.63392380227035
2023-01-13T16:17:55.205Z,79.59928813555223
2023-01-13T16:22:52.486Z,79.98336513009664
2023-01-13T16:27:54.712Z,79.58743366293005
2023-01-13T16:32:50.989Z,79.23322538024776
2023-01-13T16:37:51.246Z,79.47446380563426
2023-01-13T16:42:51.890Z,79.1612931314723
2023-01-13T16:47:48.822Z,78.42511923129688
2023-01-13T16:52:45.071Z,79.93351154870376
2023-01-13T16:57:43.310Z,79.76228060974229
2023-01-13T17:02:42.507Z,77.6867279368257
2023-01-13T17:07:39.809Z,77.41766269648326
2023-01-13T17:12:36.005Z,78.01152627633647
2023-01-13T17:17:32.292Z,78.66270649566161
2023-01-13T17:22:28.583Z,77.62139735692897
2023-01-13T17:27:25.807Z,76.95228398657324
2023-01-13T17:32:26.100Z,77.20091534951298
2023-01-13T17:37:22.372Z,77.98725156398173
2023-01-13T17:42:19.657Z,77.55663058748931
2023-01-13T17:47:16.524Z,77.10587723155673
2023-01-13T17:52:13.118Z,75.69421950072457
2023-01-13T17:57:09.334Z,76.26711697328665
2023-01-13T18:02:06.931Z,75.52753736073196
2023-01-13T18:07:04.726Z,74.80020742304093
2023-01-13T18:12:01.113Z,74.8106079120654
2023-01-13T18:17:02.464Z,74.17811653450181
2023-01-13T18:21:58.635Z,74.63445274682174
2023-01-13T18:26:54.995Z,74.51307649876726
2023-01-13T18:31:51.173Z,74.2566291029724
2023-01-13T18:36:49.376Z,74.8211281016191
2023-01-13T18:41:45.653Z,75.44728623203706
2023-01-13T18:46:41.964Z,74.95500702655809
2023-01-13T18:51:38.333Z,76.86865701948406
2023-01-13T18:56:34.448Z,77.3525080264421
2023-01-13T19:01:32.815Z,78.36518594848259
2023-01-13T19:06:33.758Z,78.98303571995359
2023-01-13T19:11:34.246Z,79.53375911928539
2023-01-13T19:16:36.522Z,78.69709574000005
2023-01-13T19:21:32.762Z,79.59966740979311
2023-01-13T19:26:29.970Z,80.13544964123439
2023-01-13T19:31:31.268Z,80.07455110595824
2023-01-13T19:36:27.452Z,79.70151299969241
2023-01-13T19:41:24.715Z,79.23981735183766
2023-01-13T19:46:22.215Z,79.6848538431116
2023-01-13T19:51:19.258Z,79.49752107849565
2023-01-13T19:56:16.529Z,78.17866186200439
2023-01-13T20:01:12.830Z,77.35472700726825
2023-01-13T20:06:09.037Z,78.09308793348943
2023-01-13T20:11:05.271Z,76.70839776024113
2023-01-13T20:16:04.508Z,77.29504730962464
2023-01-13T20:21:05.795Z,76.85549749948717
2023-01-13T20:26:02.048Z,76.13043062245096
2023-01-13T20:30:59.571Z,74.56586981335397
2023-01-13T20:35:56.603Z,76.81547473530102
2023-01-13T20:40:57.796Z,74.31920814416095
2023-01-13T20:45:55.081Z,72.86213460581463
2023-01-13T20:50:52.334Z,73.70570518983422
2023-01-13T21:00:59.968Z,74.60313009805166
2023-01-13T21:05:57.092Z,76.20531360150491
2023-01-13T21:10:58.324Z,76.33094375249398
2023-01-13T21:15:54.558Z,76.98153393176158
2023-01-13T21:20:50.838Z,76.70818439755983
2023-01-13T21:25:51.096Z,76.5654175107005
2023-01-13T21:30:47.361Z,76.99927796030015
2023-01-13T21:35:43.644Z,74.52735486943187
2023-01-13T21:40:40.856Z,73.83420233198011
2023-01-13T21:45:38.204Z,73.1011806081321
2023-01-13T21:50:41.389Z,72.28134248411818
2023-01-13T21:55:37.617Z,72.4471275591737
2023-01-13T22:00:33.899Z,73.0899954728966
2023-01-13T22:05:30.158Z,73.88036161963568
2023-01-13T22:10:28.403Z,73.44806856701383
2023-01-13T22:15:24.941Z,73.56008542920857
2023-01-13T22:20:20.928Z,73.4372681646838
2023-01-13T22:25:18.165Z,73.81378043161294
2023-01-13T22:30:15.444Z,73.85345182060996
2023-01-13T22:35:12.665Z,73.78122891300924
2023-01-13T22:40:09.986Z,73.59211925006589
2023-01-13T22:45:06.213Z,74.01869686370055
2023-01-13T22:50:02.554Z,73.6341639791114
2023-01-13T22:54:58.707Z,73.93593753003145
2023-01-13T22:59:54.998Z,72.68005168581142
2023-01-13T23:04:51.352Z,72.68890482229268
2023-01-13T23:09:47.511Z,71.76754762619491
2023-01-13T23:14:43.757Z,71.85353513623978
2023-01-13T23:19:41.042Z,71.15607886990719
2023-01-13T23:24:37.286Z,71.78938015234444
2023-01-13T23:29:35.522Z,72.58750438924413
2023-01-13T23:34:31.776Z,72.35422855883108
2023-01-13T23:39:30.225Z,71.62046853726319
2023-01-13T23:44:31.290Z,72.40497179302409
2023-01-13T23:49:27.543Z,72.3916103307737
2023-01-13T23:54:23.803Z,72.0234733700323
2023-01-13T23:59:20.103Z,72.33485041733269
